Карточка аэропорта ULAA

Внимание!
Информация на этой странице в стадии наполнения.
Если вы не увидели какой-то информации, или заметили неточность - пожалуйста сообщите нам!
Спасибо!
Команда RU-STAFF
Название аэропортаТалаги
Название аэропорта (англ.)Talagi
Превышение62 ft. (18.9 m.)
Координаты64°36.018', 40°43.002'
Высота перехода3000FT
Эшелон переходаQFE>=760mm:FL040; QFE<760=>733:FL050; QFE<733:FL060
Коды ответчика3120-3127
Зона ОрВДСанкт-Петербург РПИ (ULLL)
Данные METARULAA 090830Z 22005G10MPS 170V260 9999 BKN017 01/M01 Q1011 R26/390138 NOSIG RMK QFE756/1009
Проноз погоды (TAF)ULAA 090800Z 0909/1009 21005G10MPS 9999 BKN016 TEMPO 0909/0918 23005G15MPS 2100 -SHSN BKN005 BKN011CB TEMPO 1000/1006 20005G12MPS 6000 -SHSN FEW007 BKN011CB
NOTAMshow/hide NOTAM
AWOS   TABLE

Информация о ВПП


Диспетчерские позиции

Позывной Наименование органа УВД Частота
ULAA_APPАрхангельск-Подход122.0
ULAA_TWRАрхангельск-Вышка121.8



Спутниковое изображение